Time;durP1;ratioP1;P1;durP2;ratioP2;P2;SDS_P1;SDS_P2;PMS_P1;PMS_P2;Temp;Humidity;BMP_temperature;BMP_pressure;BME280_temperature;BME280_humidity;BME280_pressure;Samples;Min_cycle;Max_cycle;Signal;HPM_P1;HPM_P2
2022/01/14 00:00:06;;;;;;;3.67;1.92;;;21.40;43.50;;;;;;5045624;28;43454;-63
2022/01/14 00:02:33;;;;;;;2.60;1.90;;;21.40;43.40;;;;;;5045709;28;43837;-63
2022/01/14 00:05:01;;;;;;;4.53;2.25;;;21.40;43.40;;;;;;5045511;28;43424;-63
2022/01/14 00:07:28;;;;;;;2.92;1.92;;;21.40;43.40;;;;;;5041719;28;43419;-63
2022/01/14 00:09:56;;;;;;;2.80;2.10;;;21.40;43.50;;;;;;5045156;28;43494;-64
2022/01/14 00:12:27;;;;;;;2.55;2.08;;;21.40;43.40;;;;;;5045307;28;43798;-63
2022/01/14 00:14:59;;;;;;;3.58;1.80;;;21.40;43.50;;;;;;5045402;28;43479;-63
2022/01/14 00:17:27;;;;;;;3.10;1.92;;;21.40;43.50;;;;;;5042543;28;43426;-63
2022/01/14 00:19:54;;;;;;;2.17;1.80;;;21.30;43.50;;;;;;5073759;28;43500;-63
2022/01/14 00:22:24;;;;;;;3.70;2.10;;;21.30;43.50;;;;;;5045352;28;43815;-63
2022/01/14 00:33:08;;;;;;;3.10;2.00;;;21.30;43.60;;;;;;5044134;28;45104;-63
2022/01/14 00:35:41;;;;;;;2.85;1.83;;;21.20;43.60;;;;;;5044780;28;44001;-63
2022/01/14 00:38:10;;;;;;;2.95;2.20;;;21.30;43.60;;;;;;5042451;28;43543;-64
2022/01/14 00:40:38;;;;;;;2.35;1.88;;;21.20;43.60;;;;;;5042321;28;43479;-63
2022/01/14 00:43:06;;;;;;;4.35;2.03;;;21.20;43.50;;;;;;5043775;28;43942;-64
2022/01/14 00:45:34;;;;;;;4.00;2.10;;;21.20;43.60;;;;;;5044741;28;44784;-63
2022/01/14 00:48:02;;;;;;;2.83;1.92;;;21.20;43.70;;;;;;5045331;28;43410;-63
2022/01/14 00:50:30;;;;;;;2.90;1.85;;;21.20;43.70;;;;;;5043830;28;43474;-63
2022/01/14 00:52:57;;;;;;;2.67;1.83;;;21.20;43.70;;;;;;5045102;28;43578;-64
2022/01/14 00:55:39;;;;;;;4.47;1.80;;;21.20;43.70;;;;;;5044510;28;43926;-63
2022/01/14 01:00:53;;;;;;;2.78;1.80;;;21.10;43.60;;;;;;5042897;28;43339;-63
2022/01/14 01:03:21;;;;;;;3.28;2.00;;;21.10;43.70;;;;;;5044753;28;44764;-63
2022/01/14 01:05:50;;;;;;;2.60;1.88;;;21.10;43.70;;;;;;5044135;28;44005;-63
2022/01/14 01:08:22;;;;;;;4.82;2.42;;;21.10;43.70;;;;;;5041629;28;43413;-63
2022/01/14 01:10:50;;;;;;;3.55;2.10;;;21.00;43.60;;;;;;5043881;28;43468;-63
2022/01/14 01:13:30;;;;;;;4.63;2.58;;;21.10;43.70;;;;;;5043706;28;43952;-64
2022/01/14 01:15:58;;;;;;;2.28;1.90;;;21.00;43.60;;;;;;5043064;28;43579;-63
2022/01/14 01:18:27;;;;;;;3.17;2.00;;;21.00;43.60;;;;;;5044406;28;43407;-63
2022/01/14 01:20:54;;;;;;;3.25;2.22;;;21.00;43.60;;;;;;5043526;28;43511;-62
2022/01/14 01:23:22;;;;;;;3.00;2.17;;;21.00;43.60;;;;;;5044406;28;43869;-63
2022/01/14 01:26:11;;;;;;;3.67;2.00;;;21.00;43.70;;;;;;5025661;28;43522;-63
2022/01/14 01:28:54;;;;;;;3.70;2.00;;;21.00;43.70;;;;;;5058556;28;43464;-63
2022/01/14 01:31:40;;;;;;;3.72;2.13;;;21.00;43.60;;;;;;5042875;28;43551;-63
2022/01/14 01:34:10;;;;;;;2.55;1.90;;;20.90;43.60;;;;;;5044001;28;43904;-63
2022/01/14 01:36:39;;;;;;;4.07;2.27;;;20.90;43.60;;;;;;5043148;28;43984;-63
2022/01/14 01:39:10;;;;;;;3.20;2.10;;;20.90;43.60;;;;;;5043989;28;44123;-63
2022/01/14 01:41:40;;;;;;;3.65;2.25;;;20.90;43.70;;;;;;5043017;28;43503;-63
2022/01/14 01:44:08;;;;;;;3.13;2.00;;;20.90;43.70;;;;;;5041622;28;43798;-63
2022/01/14 01:46:39;;;;;;;3.53;2.20;;;20.90;43.70;;;;;;5044062;28;43903;-63
2022/01/14 01:49:08;;;;;;;2.83;2.08;;;20.90;43.70;;;;;;5040597;28;43411;-63
2022/01/14 01:51:37;;;;;;;3.78;2.05;;;20.90;43.70;;;;;;5042739;28;43485;-64
2022/01/14 01:54:05;;;;;;;3.85;2.20;;;20.90;43.70;;;;;;5043888;28;43621;-63
2022/01/14 01:56:32;;;;;;;3.25;2.08;;;20.90;43.70;;;;;;5043443;28;43408;-64
2022/01/14 01:59:00;;;;;;;3.42;1.95;;;20.80;43.70;;;;;;5044345;28;43434;-64
2022/01/14 02:01:27;;;;;;;4.10;2.25;;;20.90;43.80;;;;;;5042452;28;43559;-63
2022/01/14 02:03:55;;;;;;;4.97;2.25;;;20.80;43.70;;;;;;5043768;28;43788;-63
2022/01/14 02:06:24;;;;;;;3.40;2.10;;;20.80;43.70;;;;;;5043321;28;43479;-63
2022/01/14 02:08:52;;;;;;;3.35;2.03;;;20.80;43.80;;;;;;5043654;28;43474;-63
2022/01/14 02:11:19;;;;;;;3.80;2.10;;;20.80;43.70;;;;;;5037345;28;43451;-64
2022/01/14 02:13:49;;;;;;;2.75;2.00;;;20.80;43.80;;;;;;5042346;28;44039;-63
2022/01/14 02:17:26;;;;;;;3.87;2.27;;;20.80;43.80;;;;;;5042934;28;43446;-63
2022/01/14 02:19:25;;;;;;;2.60;1.80;;;20.80;43.80;;;;;;5039611;28;43649;-64
2022/01/14 02:22:25;;;;;;;3.10;2.00;;;20.70;43.70;;;;;;5060459;28;43517;-64
2022/01/14 02:24:58;;;;;;;4.82;2.40;;;20.70;43.80;;;;;;5040695;28;43562;-63
2022/01/14 02:27:26;;;;;;;3.20;2.03;;;20.70;43.80;;;;;;5040020;28;44417;-63
2022/01/14 02:29:53;;;;;;;4.97;2.40;;;20.70;43.80;;;;;;5043407;28;43474;-63
2022/01/14 02:32:22;;;;;;;2.55;2.03;;;20.70;43.80;;;;;;5042335;28;43516;-63
2022/01/14 02:34:49;;;;;;;4.85;2.22;;;20.70;43.80;;;;;;5043086;28;43785;-63
2022/01/14 02:37:37;;;;;;;4.03;2.00;;;20.70;43.80;;;;;;5042228;28;43384;-63
2022/01/14 02:40:05;;;;;;;2.92;2.17;;;20.70;43.80;;;;;;5043385;28;43449;-63
2022/01/14 02:42:33;;;;;;;2.72;2.03;;;20.70;43.80;;;;;;5042066;28;43497;-64
2022/01/14 02:45:05;;;;;;;4.28;2.05;;;20.60;43.80;;;;;;5042961;28;43806;-63
2022/01/14 02:47:33;;;;;;;3.50;2.17;;;20.60;43.80;;;;;;5039902;28;43447;-64
2022/01/14 02:50:00;;;;;;;4.38;2.45;;;20.60;43.80;;;;;;5033803;28;43455;-64
2022/01/14 02:55:35;;;;;;;3.17;1.98;;;20.60;43.80;;;;;;5018887;28;44692;-63
2022/01/14 02:58:03;;;;;;;3.58;2.33;;;20.60;43.80;;;;;;5042843;28;43575;-63
2022/01/14 03:00:31;;;;;;;3.95;2.00;;;20.60;43.80;;;;;;5042358;28;43412;-63
2022/01/14 03:03:01;;;;;;;3.35;2.40;;;20.50;43.80;;;;;;5046690;28;43514;-63
2022/01/14 03:05:30;;;;;;;3.40;2.38;;;20.60;43.90;;;;;;5046022;28;43799;-63
2022/01/14 03:07:59;;;;;;;4.80;2.20;;;20.60;43.90;;;;;;5045225;28;45027;-64
2022/01/14 03:10:27;;;;;;;5.22;2.28;;;20.60;43.90;;;;;;5045602;28;43539;-63
2022/01/14 03:12:55;;;;;;;3.08;1.75;;;20.50;43.90;;;;;;5046336;28;43515;-63
2022/01/14 03:15:22;;;;;;;3.15;2.05;;;20.50;43.90;;;;;;5046167;28;43974;-63
2022/01/14 03:17:50;;;;;;;4.85;2.35;;;20.50;43.90;;;;;;5046247;28;43540;-64
2022/01/14 03:20:45;;;;;;;3.25;2.05;;;20.50;43.90;;;;;;5045108;28;43490;-64
2022/01/14 03:23:11;;;;;;;3.95;2.22;;;20.50;43.90;;;;;;5044235;28;43658;-63
2022/01/14 03:25:48;;;;;;;4.72;2.20;;;20.50;43.90;;;;;;5043061;28;43931;-63
2022/01/14 03:28:21;;;;;;;3.28;2.03;;;20.50;43.90;;;;;;5045433;28;44081;-63
2022/01/14 03:30:52;;;;;;;2.78;1.95;;;20.50;43.90;;;;;;5046171;28;43518;-63
2022/01/14 03:33:20;;;;;;;3.75;2.10;;;20.50;43.90;;;;;;5037706;28;43548;-63
2022/01/14 03:35:51;;;;;;;2.83;1.88;;;20.50;43.90;;;;;;5045745;28;43915;-63
2022/01/14 03:38:18;;;;;;;3.45;2.38;;;20.50;43.90;;;;;;5044567;28;43968;-63
2022/01/14 03:40:46;;;;;;;4.38;2.03;;;20.40;43.90;;;;;;5046026;28;43551;-63
2022/01/14 03:43:14;;;;;;;3.08;2.00;;;20.40;43.90;;;;;;5046466;28;43448;-64
2022/01/14 03:45:42;;;;;;;2.80;2.10;;;20.40;44.00;;;;;;5045855;28;44675;-64
2022/01/14 03:48:10;;;;;;;3.42;2.08;;;20.40;43.90;;;;;;5045901;28;43881;-64
2022/01/14 03:50:38;;;;;;;2.63;1.92;;;20.40;43.90;;;;;;5044186;28;43520;-63
2022/01/14 03:53:05;;;;;;;2.70;2.00;;;20.40;44.00;;;;;;5045872;28;43637;-64
2022/01/14 03:55:41;;;;;;;3.08;2.00;;;20.40;43.90;;;;;;5045509;28;45172;-63
2022/01/14 03:58:28;;;;;;;3.25;2.13;;;20.40;44.00;;;;;;5075256;28;43730;-64
2022/01/14 04:00:56;;;;;;;2.95;2.00;;;20.40;44.00;;;;;;5038792;28;43478;-64
2022/01/14 04:03:24;;;;;;;3.60;1.90;;;20.40;44.00;;;;;;5045974;28;43620;-63
2022/01/14 04:05:52;;;;;;;3.58;2.10;;;20.40;44.00;;;;;;5043876;28;44729;-64
2022/01/14 04:08:19;;;;;;;4.18;2.30;;;20.40;44.10;;;;;;5044577;28;43553;-64
2022/01/14 04:10:50;;;;;;;3.55;2.10;;;20.30;43.90;;;;;;5043773;28;43666;-64
2022/01/14 04:13:20;;;;;;;2.75;1.92;;;20.30;44.00;;;;;;5045425;28;43469;-63
2022/01/14 04:15:48;;;;;;;2.83;2.28;;;20.30;44.00;;;;;;5045006;28;43808;-64
2022/01/14 04:18:20;;;;;;;3.20;2.00;;;20.30;44.10;;;;;;5042376;28;43408;-63
2022/01/14 04:20:50;;;;;;;3.70;2.65;;;20.30;44.00;;;;;;5045356;28;43546;-64
2022/01/14 04:23:19;;;;;;;2.78;2.20;;;20.30;44.00;;;;;;5044276;28;43573;-63
2022/01/14 04:25:48;;;;;;;4.07;2.27;;;20.30;44.10;;;;;;5077664;28;43931;-63
2022/01/14 04:28:15;;;;;;;4.18;2.13;;;20.30;44.10;;;;;;5045219;28;43470;-63
2022/01/14 04:30:43;;;;;;;3.83;2.50;;;20.30;44.10;;;;;;5045166;28;43386;-63
2022/01/14 04:33:11;;;;;;;2.95;1.98;;;20.30;44.10;;;;;;5045340;28;43534;-63
2022/01/14 04:35:39;;;;;;;3.00;2.00;;;20.30;44.10;;;;;;5044962;28;44673;-63
2022/01/14 04:38:07;;;;;;;3.00;2.20;;;20.30;44.00;;;;;;5044000;28;43471;-64
2022/01/14 04:40:34;;;;;;;3.60;2.10;;;20.30;44.00;;;;;;5043911;28;44053;-63
2022/01/14 04:43:02;;;;;;;3.20;2.20;;;20.20;44.00;;;;;;5045036;28;43977;-63
2022/01/14 04:48:06;;;;;;;3.10;2.13;;;20.20;44.00;;;;;;5037417;28;43436;-63
2022/01/14 04:50:34;;;;;;;3.63;2.10;;;20.20;44.00;;;;;;5041973;28;43571;-63
2022/01/14 04:53:02;;;;;;;3.97;2.20;;;20.20;44.10;;;;;;5044890;28;43463;-63
2022/01/14 04:55:29;;;;;;;3.17;2.03;;;20.20;44.10;;;;;;5043733;28;45364;-63
2022/01/14 04:57:57;;;;;;;3.40;2.20;;;20.20;44.10;;;;;;5044724;28;43412;-63
2022/01/14 05:00:26;;;;;;;3.47;2.10;;;20.20;44.10;;;;;;5044922;28;43496;-63
2022/01/14 05:02:55;;;;;;;3.42;2.40;;;20.10;44.00;;;;;;5044707;28;43456;-64
2022/01/14 05:05:29;;;;;;;3.42;2.55;;;20.10;44.00;;;;;;5043363;28;45844;-63
2022/01/14 05:07:57;;;;;;;4.20;2.28;;;20.10;44.10;;;;;;5043537;28;43781;-63
2022/01/14 05:12:52;;;;;;;2.60;2.22;;;20.10;44.10;;;;;;5044478;28;43467;-63
2022/01/14 05:15:20;;;;;;;3.42;2.20;;;20.10;44.10;;;;;;5026750;28;45421;-63
2022/01/14 05:17:49;;;;;;;3.38;2.05;;;20.10;44.10;;;;;;5043277;28;43516;-63
2022/01/14 05:20:18;;;;;;;3.70;2.17;;;20.10;44.10;;;;;;5043638;28;43483;-63
2022/01/14 05:22:45;;;;;;;3.03;2.10;;;20.10;44.20;;;;;;5042971;28;43490;-63
2022/01/14 05:25:14;;;;;;;2.78;2.10;;;20.10;44.20;;;;;;5043603;28;43576;-64
2022/01/14 05:27:43;;;;;;;3.25;2.53;;;20.00;44.10;;;;;;5041250;28;44060;-64
2022/01/14 05:30:13;;;;;;;3.35;2.03;;;20.00;44.10;;;;;;5044685;28;43460;-63
2022/01/14 05:32:48;;;;;;;2.67;2.23;;;20.00;44.10;;;;;;5041302;28;43444;-64
2022/01/14 05:35:20;;;;;;;2.13;1.83;;;20.00;44.10;;;;;;5036680;28;44708;-63
2022/01/14 05:37:48;;;;;;;3.25;2.00;;;20.00;44.10;;;;;;5042792;28;43543;-63
2022/01/14 05:40:18;;;;;;;3.53;2.33;;;20.00;44.20;;;;;;5044634;28;43551;-63
2022/01/14 05:42:46;;;;;;;2.53;1.98;;;20.00;44.20;;;;;;5044094;28;43490;-63
2022/01/14 05:45:15;;;;;;;3.90;2.30;;;20.00;44.10;;;;;;5044251;28;43795;-63
2022/01/14 05:47:43;;;;;;;3.45;2.28;;;20.00;44.10;;;;;;5043876;28;43435;-63
2022/01/14 05:50:16;;;;;;;2.50;1.85;;;20.00;44.20;;;;;;5044068;28;43449;-64
2022/01/14 05:52:44;;;;;;;3.30;2.00;;;20.00;44.10;;;;;;5075534;28;43407;-63
2022/01/14 05:55:14;;;;;;;3.45;1.95;;;20.00;44.10;;;;;;5043784;28;43873;-63
2022/01/14 05:57:42;;;;;;;4.13;2.13;;;20.00;44.10;;;;;;5043227;28;43489;-63
2022/01/14 06:00:13;;;;;;;3.38;2.10;;;20.00;44.20;;;;;;5042193;28;43515;-64
2022/01/14 06:02:45;;;;;;;2.33;1.90;;;20.00;44.20;;;;;;5035470;28;43522;-63
2022/01/14 06:05:13;;;;;;;3.13;1.98;;;20.00;44.20;;;;;;5043766;28;45113;-63
2022/01/14 06:07:41;;;;;;;3.30;1.88;;;20.00;44.20;;;;;;5043325;28;43710;-64
2022/01/14 06:10:09;;;;;;;3.13;1.88;;;20.00;44.20;;;;;;5043504;28;43470;-63
2022/01/14 06:12:37;;;;;;;2.55;1.95;;;20.00;44.20;;;;;;5043698;28;43456;-63
2022/01/14 06:15:05;;;;;;;3.65;2.08;;;20.00;44.20;;;;;;5042050;28;43940;-64
2022/01/14 06:17:33;;;;;;;4.05;2.30;;;20.00;44.20;;;;;;5040236;28;43514;-63
2022/01/14 06:20:03;;;;;;;2.35;1.65;;;20.00;44.30;;;;;;5043340;28;43443;-63
2022/01/14 06:22:30;;;;;;;4.38;2.03;;;20.00;44.30;;;;;;5042400;28;43601;-63
2022/01/14 06:25:00;;;;;;;2.33;2.10;;;20.00;44.20;;;;;;5043277;28;45105;-63
2022/01/14 06:27:28;;;;;;;3.95;2.10;;;20.00;44.30;;;;;;5043295;28;43448;-64
2022/01/14 06:29:57;;;;;;;4.15;1.85;;;20.00;44.30;;;;;;5043690;28;43516;-63
2022/01/14 06:32:24;;;;;;;5.15;2.25;;;20.00;44.20;;;;;;5042427;28;43443;-64
2022/01/14 06:34:52;;;;;;;2.88;1.63;;;20.00;44.20;;;;;;5043373;28;43782;-64
2022/01/14 06:37:19;;;;;;;2.97;1.90;;;20.10;44.30;;;;;;5042151;28;43719;-63
2022/01/14 06:39:46;;;;;;;3.55;2.13;;;20.10;44.30;;;;;;5042363;28;43503;-63
2022/01/14 06:42:14;;;;;;;2.95;1.95;;;20.10;44.30;;;;;;5043635;28;43569;-63
2022/01/14 06:44:41;;;;;;;2.60;1.80;;;20.10;44.30;;;;;;5040115;28;43623;-63
2022/01/14 06:47:09;;;;;;;4.80;3.15;;;20.10;44.20;;;;;;5040329;28;43486;-63
2022/01/14 06:49:36;;;;;;;2.53;1.70;;;20.10;44.30;;;;;;5056510;28;43494;-64
2022/01/14 06:52:04;;;;;;;3.22;1.90;;;20.10;44.20;;;;;;5041565;28;43598;-63
2022/01/14 06:54:32;;;;;;;2.45;1.75;;;20.20;44.30;;;;;;5043084;28;44669;-64
2022/01/14 06:57:00;;;;;;;3.40;1.77;;;20.20;44.30;;;;;;5039801;28;43484;-63
2022/01/14 06:59:27;;;;;;;3.00;1.92;;;20.20;44.20;;;;;;5043066;28;43403;-63
2022/01/14 07:01:54;;;;;;;2.13;1.55;;;20.20;44.20;;;;;;5043110;28;43474;-63
2022/01/14 07:04:22;;;;;;;2.90;1.80;;;20.20;44.20;;;;;;5042995;28;43830;-63
2022/01/14 07:06:49;;;;;;;3.15;1.60;;;20.20;44.20;;;;;;5042571;28;43496;-63
2022/01/14 07:09:17;;;;;;;2.58;1.75;;;20.20;44.20;;;;;;5042556;28;44118;-63
2022/01/14 07:11:52;;;;;;;2.97;1.60;;;20.20;44.20;;;;;;5039669;28;43450;-63
2022/01/14 07:14:19;;;;;;;2.75;1.60;;;20.20;44.30;;;;;;5039973;28;43575;-63
2022/01/14 07:16:47;;;;;;;2.08;1.60;;;20.20;44.20;;;;;;5042513;28;43535;-63
2022/01/14 07:19:17;;;;;;;2.70;1.80;;;20.20;44.20;;;;;;5041683;28;43431;-64
2022/01/14 07:21:44;;;;;;;2.63;1.77;;;20.20;44.90;;;;;;5042698;28;43418;-63
2022/01/14 07:24:13;;;;;;;2.92;1.77;;;20.30;44.30;;;;;;5042419;28;44695;-63
2022/01/14 07:26:41;;;;;;;2.78;1.63;;;20.30;44.20;;;;;;5024802;28;44809;-63
2022/01/14 07:29:09;;;;;;;3.13;2.08;;;20.30;44.20;;;;;;5042805;28;43392;-63
2022/01/14 07:31:36;;;;;;;3.17;1.98;;;20.30;44.20;;;;;;5042498;28;43522;-64
2022/01/14 07:34:04;;;;;;;3.13;1.80;;;20.30;44.20;;;;;;5042519;28;43880;-64
2022/01/14 07:36:35;;;;;;;;;;;20.30;44.10;;;;;;5042949;28;43376;-64
2022/01/14 07:39:05;;;;;;;2.25;1.40;;;20.30;44.20;;;;;;5042703;28;43371;-64
2022/01/14 07:41:34;;;;;;;3.05;1.73;;;20.30;44.20;;;;;;5041193;28;43618;-63
2022/01/14 07:44:03;;;;;;;3.40;1.75;;;20.30;44.20;;;;;;5039924;28;43569;-64
2022/01/14 07:46:30;;;;;;;3.25;1.60;;;20.30;44.20;;;;;;5074631;27;43507;-63
2022/01/14 07:48:58;;;;;;;4.47;1.65;;;20.40;44.20;;;;;;5046007;28;43487;-64
2022/01/14 07:51:25;;;;;;;3.80;1.50;;;20.40;44.80;;;;;;5045748;28;44042;-64
2022/01/14 07:53:53;;;;;;;3.20;1.55;;;20.40;44.30;;;;;;5044048;28;44207;-64
2022/01/14 07:56:20;;;;;;;2.90;1.60;;;20.40;44.20;;;;;;5045283;28;43994;-63
2022/01/14 07:58:49;;;;;;;2.33;1.50;;;20.40;44.30;;;;;;5060597;28;44017;-64
2022/01/14 08:01:16;;;;;;;2.63;1.40;;;20.50;44.30;;;;;;5043004;28;43458;-64
2022/01/14 08:03:43;;;;;;;2.20;1.40;;;20.50;44.20;;;;;;5046478;28;43866;-63
2022/01/14 08:06:13;;;;;;;2.88;1.63;;;20.50;44.20;;;;;;5045217;28;43610;-63
2022/01/14 08:08:41;;;;;;;2.22;1.38;;;20.50;44.20;;;;;;5042806;28;43571;-64
2022/01/14 08:11:08;;;;;;;2.35;1.50;;;20.50;44.20;;;;;;5045056;28;43536;-64
2022/01/14 08:13:36;;;;;;;2.45;1.50;;;20.50;44.20;;;;;;5044123;28;44060;-63
2022/01/14 08:16:04;;;;;;;3.05;1.70;;;20.50;44.20;;;;;;5026729;28;43512;-64
2022/01/14 08:18:31;;;;;;;3.05;1.80;;;20.60;44.30;;;;;;5043656;28;43440;-64
2022/01/14 08:20:59;;;;;;;3.22;1.63;;;20.60;44.30;;;;;;5045449;28;43458;-64
2022/01/14 08:23:27;;;;;;;2.30;1.50;;;20.60;44.20;;;;;;5044045;28;44684;-63
2022/01/14 08:25:57;;;;;;;2.67;1.73;;;20.60;44.10;;;;;;5044433;28;43472;-63
2022/01/14 08:28:25;;;;;;;2.55;1.80;;;20.60;44.20;;;;;;5043053;28;43589;-64
2022/01/14 08:30:53;;;;;;;3.30;1.70;;;20.70;44.20;;;;;;5060049;28;43475;-63
2022/01/14 08:33:21;;;;;;;3.05;1.77;;;20.70;44.20;;;;;;5045531;28;44641;-63
2022/01/14 08:35:52;;;;;;;3.10;1.65;;;20.70;44.10;;;;;;5044635;28;43517;-63
2022/01/14 08:38:21;;;;;;;2.97;1.80;;;20.70;44.10;;;;;;5045428;28;43472;-63
2022/01/14 08:40:48;;;;;;;2.40;1.45;;;20.70;44.10;;;;;;5044607;28;43446;-63
2022/01/14 08:43:20;;;;;;;2.55;1.60;;;20.80;44.20;;;;;;5075994;28;44088;-63
2022/01/14 08:45:49;;;;;;;2.92;1.50;;;20.80;44.10;;;;;;5044368;28;43663;-63
2022/01/14 08:48:18;;;;;;;2.90;1.60;;;20.80;44.10;;;;;;5045234;28;43415;-63
2022/01/14 08:50:45;;;;;;;3.80;1.58;;;20.80;44.20;;;;;;5043176;28;43602;-62
2022/01/14 08:53:14;;;;;;;2.63;1.50;;;20.80;44.40;;;;;;5037000;28;44020;-62
2022/01/14 08:55:42;;;;;;;5.43;2.00;;;20.80;44.20;;;;;;5046636;28;43465;-63
2022/01/14 08:58:10;;;;;;;3.63;1.58;;;20.80;44.20;;;;;;5045851;28;43543;-63
2022/01/14 09:00:39;;;;;;;3.03;1.80;;;20.90;44.20;;;;;;5045846;28;43495;-63
2022/01/14 09:03:07;;;;;;;4.18;1.58;;;20.90;44.30;;;;;;5043203;28;43834;-64
2022/01/14 09:05:34;;;;;;;4.63;1.67;;;20.90;44.30;;;;;;5051401;28;43509;-63
2022/01/14 09:08:02;;;;;;;3.42;1.70;;;20.90;44.40;;;;;;5049540;28;43380;-63
2022/01/14 09:10:30;;;;;;;2.40;1.50;;;20.90;44.40;;;;;;5052566;28;43744;-62
2022/01/14 09:12:57;;;;;;;2.20;1.40;;;20.90;44.50;;;;;;5050601;28;43575;-63
2022/01/14 09:15:25;;;;;;;3.03;1.60;;;20.90;44.40;;;;;;5050026;28;43491;-63
2022/01/14 09:17:52;;;;;;;3.20;1.33;;;21.00;44.50;;;;;;5047732;28;43508;-64
2022/01/14 09:20:20;;;;;;;3.58;1.77;;;21.00;44.40;;;;;;5049073;28;43507;-64
2022/01/14 09:22:51;;;;;;;3.78;1.75;;;21.00;44.40;;;;;;5048350;28;45849;-61
2022/01/14 09:25:19;;;;;;;;;;;21.00;44.40;;;;;;5052159;28;43497;-64
2022/01/14 09:27:49;;;;;;;3.13;1.70;;;21.00;44.50;;;;;;5050655;28;44072;-63
2022/01/14 09:30:17;;;;;;;2.83;1.53;;;21.00;44.50;;;;;;5051792;28;43504;-62
2022/01/14 09:32:44;;;;;;;2.90;1.67;;;21.00;44.50;;;;;;5050494;28;43801;-63
2022/01/14 09:35:34;;;;;;;2.95;1.40;;;21.10;44.50;;;;;;5052058;28;43483;-63
2022/01/14 09:38:01;;;;;;;2.53;1.50;;;21.10;44.40;;;;;;5049998;28;43466;-63
2022/01/14 09:40:29;;;;;;;3.80;1.88;;;21.10;44.40;;;;;;5055498;28;43507;-63
2022/01/14 09:43:00;;;;;;;3.42;1.58;;;21.10;44.30;;;;;;5052056;28;43611;-63
2022/01/14 09:45:49;;;;;;;;;;;21.20;44.40;;;;;;5045106;28;44058;-63
2022/01/14 09:48:17;;;;;;;3.95;1.65;;;21.20;44.40;;;;;;5050009;28;43409;-63
2022/01/14 09:50:45;;;;;;;2.35;1.50;;;21.20;44.50;;;;;;5048608;28;43640;-63
2022/01/14 09:53:16;;;;;;;3.22;1.75;;;21.20;44.50;;;;;;5053016;28;44639;-63
2022/01/14 09:55:44;;;;;;;3.83;1.65;;;21.20;45.10;;;;;;5048373;28;43723;-63
2022/01/14 09:58:11;;;;;;;4.63;1.80;;;21.20;44.50;;;;;;5047143;28;43529;-63
2022/01/14 10:00:39;;;;;;;3.22;1.63;;;21.20;44.50;;;;;;5051653;28;43522;-63
2022/01/14 10:03:24;;;;;;;2.88;1.52;;;21.30;44.80;;;;;;5053104;28;43782;-64
2022/01/14 10:05:56;;;;;;;3.92;1.60;;;21.30;44.60;;;;;;5047970;28;43516;-64
2022/01/14 10:08:27;;;;;;;2.08;1.40;;;21.30;44.60;;;;;;5056519;28;43431;-63
2022/01/14 10:10:59;;;;;;;;;;;21.30;44.80;;;;;;5051754;28;43549;-63
2022/01/14 10:13:30;;;;;;;5.30;1.85;;;21.30;44.60;;;;;;5050400;28;43878;-63
2022/01/14 10:16:06;;;;;;;2.42;1.42;;;21.30;44.70;;;;;;5048893;28;43509;-63
2022/01/14 10:18:35;;;;;;;3.30;1.48;;;21.40;44.70;;;;;;5049240;28;43461;-63
2022/01/14 10:21:06;;;;;;;3.00;1.60;;;21.40;44.60;;;;;;5049328;28;43871;-63
2022/01/14 10:23:51;;;;;;;5.80;1.75;;;21.50;44.60;;;;;;5052360;28;43793;-63
2022/01/14 10:26:20;;;;;;;2.30;1.52;;;21.50;44.50;;;;;;5045246;28;43499;-64
2022/01/14 10:29:05;;;;;;;3.33;1.77;;;21.50;44.50;;;;;;5049889;28;43428;-63
2022/01/14 10:31:35;;;;;;;4.00;1.67;;;21.50;44.50;;;;;;5054057;28;43525;-64
2022/01/14 10:34:14;;;;;;;4.30;1.75;;;21.50;44.60;;;;;;5055648;28;44040;-64
2022/01/14 10:36:46;;;;;;;4.70;1.77;;;21.60;44.60;;;;;;5049579;28;43719;-63
2022/01/14 10:39:25;;;;;;;6.03;2.17;;;21.60;44.60;;;;;;5050981;28;43507;-64
2022/01/14 10:41:56;;;;;;;2.83;1.30;;;21.60;44.50;;;;;;5050629;28;43547;-64
2022/01/14 10:44:38;;;;;;;3.28;1.70;;;21.60;44.50;;;;;;5051135;28;43760;-63
2022/01/14 10:47:12;;;;;;;5.60;1.95;;;21.60;44.40;;;;;;5046927;28;43435;-63
2022/01/14 10:49:40;;;;;;;6.80;2.08;;;21.70;44.40;;;;;;5049995;28;43515;-64
2022/01/14 10:52:18;;;;;;;2.78;1.70;;;21.70;44.40;;;;;;5045907;28;43632;-63
2022/01/14 10:54:54;;;;;;;3.65;1.55;;;21.70;44.40;;;;;;5036542;28;43604;-64
2022/01/14 10:57:25;;;;;;;3.22;1.80;;;21.80;44.40;;;;;;5040194;28;43460;-63
2022/01/14 11:00:12;;;;;;;4.80;1.80;;;21.80;44.30;;;;;;5041987;28;43485;-64
2022/01/14 11:02:45;;;;;;;3.83;1.77;;;21.80;44.40;;;;;;5041583;28;43467;-64
2022/01/14 11:05:23;;;;;;;2.95;1.60;;;21.80;44.30;;;;;;5052691;28;44676;-64
2022/01/14 11:07:52;;;;;;;3.15;1.80;;;21.80;44.40;;;;;;5085669;27;44078;-63
2022/01/14 11:10:48;;;;;;;3.45;1.60;;;21.80;44.30;;;;;;5047248;28;43506;-64
2022/01/14 11:13:17;;;;;;;4.20;1.88;;;21.80;44.40;;;;;;5041358;28;44855;-63
2022/01/14 11:15:45;;;;;;;3.63;1.60;;;21.80;44.40;;;;;;5043401;28;43868;-62
2022/01/14 11:18:13;;;;;;;3.85;1.98;;;21.80;44.40;;;;;;5045089;28;43368;-62
2022/01/14 11:23:28;;;;;;;2.42;1.30;;;21.90;44.40;;;;;;5077022;27;43680;-61
2022/01/14 11:26:06;;;;;;;3.42;1.67;;;21.90;44.40;;;;;;5044331;28;44079;-62
2022/01/14 11:28:35;;;;;;;2.58;1.60;;;21.90;44.40;;;;;;5047291;28;43706;-62
2022/01/14 11:31:33;;;;;;;3.30;1.65;;;22.00;44.50;;;;;;5045329;28;43599;-62
2022/01/14 11:34:03;;;;;;;4.13;1.77;;;22.00;44.50;;;;;;5044793;28;43612;-63
2022/01/14 11:37:01;;;;;;;4.80;2.15;;;22.00;44.50;;;;;;5046282;28;44336;-62
2022/01/14 11:39:31;;;;;;;3.15;1.60;;;22.00;44.40;;;;;;5046131;28;43712;-64
2022/01/14 11:42:01;;;;;;;4.47;2.25;;;22.00;44.40;;;;;;5045382;28;43666;-63
2022/01/14 11:47:28;;;;;;;5.35;1.80;;;22.00;44.40;;;;;;5046077;28;43764;-64
2022/01/14 11:49:58;;;;;;;5.13;1.65;;;22.10;44.50;;;;;;5044929;28;43412;-64
2022/01/14 11:52:36;;;;;;;2.75;1.80;;;22.10;44.40;;;;;;5046023;28;43531;-64
2022/01/14 11:55:25;;;;;;;3.67;1.80;;;22.10;44.40;;;;;;5046988;28;43449;-64
2022/01/14 11:57:55;;;;;;;4.32;1.77;;;22.10;44.30;;;;;;5046818;28;43659;-64
2022/01/14 12:00:30;;;;;;;3.15;1.83;;;22.20;44.40;;;;;;5050396;28;43536;-63
2022/01/14 12:03:26;;;;;;;3.30;1.80;;;22.20;44.30;;;;;;5049389;28;43535;-64
2022/01/14 12:05:56;;;;;;;3.67;1.70;;;22.20;44.30;;;;;;5043913;28;43662;-63
2022/01/14 12:08:31;;;;;;;3.55;1.77;;;22.20;44.30;;;;;;5049491;28;43792;-63
2022/01/14 12:11:08;;;;;;;4.63;2.15;;;22.20;44.20;;;;;;5052710;28;43468;-64
2022/01/14 12:13:55;;;;;;;3.00;1.52;;;22.30;44.30;;;;;;5045451;28;43488;-64
2022/01/14 12:19:09;;;;;;;3.08;1.70;;;22.30;44.30;;;;;;5045571;28;44724;-62
2022/01/14 12:21:49;;;;;;;2.92;1.55;;;22.30;44.30;;;;;;5049792;28;43705;-63
2022/01/14 12:24:19;;;;;;;4.32;1.85;;;22.30;44.20;;;;;;5048334;28;43457;-63
2022/01/14 12:26:52;;;;;;;4.70;1.77;;;22.30;44.20;;;;;;5047119;28;43670;-64
2022/01/14 12:29:42;;;;;;;3.65;1.60;;;22.30;44.10;;;;;;5050275;28;44038;-64
2022/01/14 12:32:14;;;;;;;3.42;2.20;;;22.40;44.60;;;;;;5085622;27;43708;-63
2022/01/14 12:34:48;;;;;;;3.42;1.67;;;22.40;44.20;;;;;;5051578;28;43423;-63
2022/01/14 12:37:24;;;;;;;5.18;2.00;;;22.40;44.10;;;;;;5048407;28;43578;-64
2022/01/14 12:39:52;;;;;;;3.15;1.70;;;22.50;44.20;;;;;;5048633;28;43862;-63
2022/01/14 12:42:21;;;;;;;4.40;2.17;;;22.40;44.10;;;;;;5049785;28;43454;-64
2022/01/14 12:44:53;;;;;;;3.25;1.52;;;22.50;44.20;;;;;;5053226;28;43473;-63
2022/01/14 12:47:25;;;;;;;2.90;1.75;;;22.50;44.10;;;;;;5049786;28;43432;-64
2022/01/14 12:49:53;;;;;;;3.72;1.77;;;22.50;44.20;;;;;;5045891;28;43862;-64
2022/01/14 12:52:36;;;;;;;3.50;1.70;;;22.50;44.10;;;;;;5049836;28;43495;-64
2022/01/14 12:55:06;;;;;;;3.35;1.55;;;22.50;44.10;;;;;;5051436;28;43451;-63
2022/01/14 12:57:34;;;;;;;3.80;1.73;;;22.60;44.10;;;;;;5052804;28;43502;-65
2022/01/14 13:00:04;;;;;;;4.93;1.73;;;22.50;44.10;;;;;;5052880;28;44283;-64
2022/01/14 13:02:34;;;;;;;5.38;2.00;;;22.60;44.10;;;;;;5057666;28;43769;-64
2022/01/14 13:05:07;;;;;;;2.88;1.60;;;22.60;44.10;;;;;;5055154;28;43474;-64
2022/01/14 13:07:36;;;;;;;4.63;1.83;;;22.60;44.10;;;;;;5042938;28;43569;-64
2022/01/14 13:10:05;;;;;;;3.85;1.75;;;22.60;44.00;;;;;;5052144;28;44620;-64
2022/01/14 13:12:38;;;;;;;3.90;1.70;;;22.60;44.00;;;;;;5042604;28;45165;-64
2022/01/14 13:15:19;;;;;;;4.63;1.95;;;22.60;44.00;;;;;;5049111;28;44093;-64
2022/01/14 13:18:03;;;;;;;4.65;2.03;;;22.60;44.00;;;;;;5042650;28;43603;-64
2022/01/14 13:20:32;;;;;;;4.47;2.00;;;22.60;44.00;;;;;;5071941;27;43902;-64
2022/01/14 13:23:00;;;;;;;3.33;1.70;;;22.60;44.00;;;;;;5043281;28;43478;-64
2022/01/14 13:25:33;;;;;;;3.90;1.80;;;22.60;44.00;;;;;;5043450;28;43453;-64
2022/01/14 13:28:03;;;;;;;3.90;1.83;;;22.70;44.00;;;;;;5042281;28;43487;-64
2022/01/14 13:30:35;;;;;;;4.60;1.95;;;22.70;44.00;;;;;;5044231;28;43919;-64
2022/01/14 13:33:09;;;;;;;5.00;2.05;;;22.60;43.90;;;;;;5043961;28;43491;-63